sensor_id;sensor_type;location;lat;lon;timestamp;P1;durP1;ratioP1;P2;durP2;ratioP2
69240;SDS011;56352;55.750;13.198;2022-12-29T00:01:27;3.33;;;2.63;;
69240;SDS011;56352;55.750;13.198;2022-12-29T00:03:54;4.85;;;2.85;;
69240;SDS011;56352;55.750;13.198;2022-12-29T00:06:20;6.22;;;2.80;;
69240;SDS011;56352;55.750;13.198;2022-12-29T00:08:47;4.85;;;2.83;;
69240;SDS011;56352;55.750;13.198;2022-12-29T00:11:17;3.78;;;2.35;;
69240;SDS011;56352;55.750;13.198;2022-12-29T00:13:44;3.90;;;2.53;;
69240;SDS011;56352;55.750;13.198;2022-12-29T00:16:30;6.40;;;2.70;;
69240;SDS011;56352;55.750;13.198;2022-12-29T00:18:56;2.85;;;2.47;;
69240;SDS011;56352;55.750;13.198;2022-12-29T00:21:23;4.43;;;2.35;;
69240;SDS011;56352;55.750;13.198;2022-12-29T00:24:09;4.40;;;3.05;;
69240;SDS011;56352;55.750;13.198;2022-12-29T00:26:53;4.88;;;2.60;;
69240;SDS011;56352;55.750;13.198;2022-12-29T00:29:39;5.10;;;3.00;;
69240;SDS011;56352;55.750;13.198;2022-12-29T00:32:24;7.82;;;2.63;;
69240;SDS011;56352;55.750;13.198;2022-12-29T00:35:09;3.20;;;2.55;;
69240;SDS011;56352;55.750;13.198;2022-12-29T00:37:40;3.85;;;2.58;;
69240;SDS011;56352;55.750;13.198;2022-12-29T00:40:26;4.22;;;2.58;;
69240;SDS011;56352;55.750;13.198;2022-12-29T00:43:11;3.70;;;2.40;;
69240;SDS011;56352;55.750;13.198;2022-12-29T00:45:56;7.68;;;2.72;;
69240;SDS011;56352;55.750;13.198;2022-12-29T00:48:22;4.18;;;2.60;;
69240;SDS011;56352;55.750;13.198;2022-12-29T00:51:07;5.47;;;2.53;;
69240;SDS011;56352;55.750;13.198;2022-12-29T00:53:34;5.13;;;2.33;;
69240;SDS011;56352;55.750;13.198;2022-12-29T00:56:00;5.00;;;2.47;;
69240;SDS011;56352;55.750;13.198;2022-12-29T00:58:28;5.40;;;2.67;;
69240;SDS011;56352;55.750;13.198;2022-12-29T01:01:04;3.00;;;2.25;;
69240;SDS011;56352;55.750;13.198;2022-12-29T01:03:30;3.75;;;1.90;;
69240;SDS011;56352;55.750;13.198;2022-12-29T01:05:59;5.32;;;2.50;;
69240;SDS011;56352;55.750;13.198;2022-12-29T01:08:27;5.03;;;2.80;;
69240;SDS011;56352;55.750;13.198;2022-12-29T01:11:00;4.70;;;2.40;;
69240;SDS011;56352;55.750;13.198;2022-12-29T01:13:26;4.10;;;2.40;;
69240;SDS011;56352;55.750;13.198;2022-12-29T01:15:53;6.78;;;2.55;;
69240;SDS011;56352;55.750;13.198;2022-12-29T01:18:20;5.82;;;2.80;;
69240;SDS011;56352;55.750;13.198;2022-12-29T01:20:47;5.10;;;2.72;;
69240;SDS011;56352;55.750;13.198;2022-12-29T01:23:14;4.82;;;2.60;;
69240;SDS011;56352;55.750;13.198;2022-12-29T01:25:40;7.82;;;2.72;;
69240;SDS011;56352;55.750;13.198;2022-12-29T01:28:06;3.78;;;2.40;;
69240;SDS011;56352;55.750;13.198;2022-12-29T01:30:34;4.93;;;2.08;;
69240;SDS011;56352;55.750;13.198;2022-12-29T01:33:01;4.50;;;2.40;;
69240;SDS011;56352;55.750;13.198;2022-12-29T01:35:27;5.65;;;2.42;;
69240;SDS011;56352;55.750;13.198;2022-12-29T01:37:53;3.42;;;2.22;;
69240;SDS011;56352;55.750;13.198;2022-12-29T01:40:20;3.90;;;2.25;;
69240;SDS011;56352;55.750;13.198;2022-12-29T01:42:46;2.70;;;2.35;;
69240;SDS011;56352;55.750;13.198;2022-12-29T01:45:13;4.78;;;1.92;;
69240;SDS011;56352;55.750;13.198;2022-12-29T01:47:50;4.60;;;2.10;;
69240;SDS011;56352;55.750;13.198;2022-12-29T01:52:52;5.47;;;2.25;;
69240;SDS011;56352;55.750;13.198;2022-12-29T01:55:20;2.53;;;2.08;;
69240;SDS011;56352;55.750;13.198;2022-12-29T01:57:47;3.28;;;2.20;;
69240;SDS011;56352;55.750;13.198;2022-12-29T02:00:15;3.47;;;2.35;;
69240;SDS011;56352;55.750;13.198;2022-12-29T02:02:47;4.63;;;2.17;;
69240;SDS011;56352;55.750;13.198;2022-12-29T02:05:20;4.35;;;2.42;;
69240;SDS011;56352;55.750;13.198;2022-12-29T02:07:47;4.25;;;2.13;;
69240;SDS011;56352;55.750;13.198;2022-12-29T02:10:14;3.53;;;2.00;;
69240;SDS011;56352;55.750;13.198;2022-12-29T02:12:41;5.03;;;1.92;;
69240;SDS011;56352;55.750;13.198;2022-12-29T02:15:07;2.17;;;1.80;;
69240;SDS011;56352;55.750;13.198;2022-12-29T02:30:49;1.90;;;1.67;;
69240;SDS011;56352;55.750;13.198;2022-12-29T02:33:23;3.45;;;1.60;;
69240;SDS011;56352;55.750;13.198;2022-12-29T02:36:00;2.30;;;1.80;;
69240;SDS011;56352;55.750;13.198;2022-12-29T02:41:16;2.28;;;1.70;;
69240;SDS011;56352;55.750;13.198;2022-12-29T02:51:39;2.20;;;1.50;;
69240;SDS011;56352;55.750;13.198;2022-12-29T02:54:06;3.63;;;1.60;;
69240;SDS011;56352;55.750;13.198;2022-12-29T02:56:52;1.63;;;1.45;;
69240;SDS011;56352;55.750;13.198;2022-12-29T02:59:19;2.58;;;1.50;;
69240;SDS011;56352;55.750;13.198;2022-12-29T03:01:59;2.50;;;1.60;;
69240;SDS011;56352;55.750;13.198;2022-12-29T03:07:12;2.53;;;2.05;;
69240;SDS011;56352;55.750;13.198;2022-12-29T03:14:58;3.08;;;2.30;;
69240;SDS011;56352;55.750;13.198;2022-12-29T03:20:31;3.30;;;2.30;;
69240;SDS011;56352;55.750;13.198;2022-12-29T03:23:02;3.38;;;2.20;;
69240;SDS011;56352;55.750;13.198;2022-12-29T03:25:30;3.75;;;2.60;;
69240;SDS011;56352;55.750;13.198;2022-12-29T03:28:01;5.10;;;2.55;;
69240;SDS011;56352;55.750;13.198;2022-12-29T03:30:29;5.55;;;2.78;;
69240;SDS011;56352;55.750;13.198;2022-12-29T03:33:01;4.20;;;2.78;;
69240;SDS011;56352;55.750;13.198;2022-12-29T03:35:29;3.60;;;2.72;;
69240;SDS011;56352;55.750;13.198;2022-12-29T03:40:30;4.80;;;2.83;;
69240;SDS011;56352;55.750;13.198;2022-12-29T03:42:57;5.45;;;2.97;;
69240;SDS011;56352;55.750;13.198;2022-12-29T03:45:24;5.13;;;3.28;;
69240;SDS011;56352;55.750;13.198;2022-12-29T03:47:51;4.40;;;2.67;;
69240;SDS011;56352;55.750;13.198;2022-12-29T03:50:18;5.20;;;2.65;;
69240;SDS011;56352;55.750;13.198;2022-12-29T03:52:45;5.22;;;3.10;;
69240;SDS011;56352;55.750;13.198;2022-12-29T03:55:11;4.65;;;3.33;;
69240;SDS011;56352;55.750;13.198;2022-12-29T03:57:37;6.35;;;3.80;;
69240;SDS011;56352;55.750;13.198;2022-12-29T04:00:04;6.63;;;3.65;;
69240;SDS011;56352;55.750;13.198;2022-12-29T04:02:31;7.05;;;3.65;;
69240;SDS011;56352;55.750;13.198;2022-12-29T04:04:58;5.07;;;4.15;;
69240;SDS011;56352;55.750;13.198;2022-12-29T04:07:24;9.38;;;4.82;;
69240;SDS011;56352;55.750;13.198;2022-12-29T04:09:51;9.85;;;4.78;;
69240;SDS011;56352;55.750;13.198;2022-12-29T04:12:17;6.85;;;5.07;;
69240;SDS011;56352;55.750;13.198;2022-12-29T04:14:43;5.97;;;4.95;;
69240;SDS011;56352;55.750;13.198;2022-12-29T04:17:10;7.38;;;4.80;;
69240;SDS011;56352;55.750;13.198;2022-12-29T04:19:36;9.57;;;4.85;;
69240;SDS011;56352;55.750;13.198;2022-12-29T04:22:03;9.07;;;5.47;;
69240;SDS011;56352;55.750;13.198;2022-12-29T04:24:29;10.68;;;5.03;;
69240;SDS011;56352;55.750;13.198;2022-12-29T04:26:56;7.78;;;5.00;;
69240;SDS011;56352;55.750;13.198;2022-12-29T04:29:22;12.02;;;4.90;;
69240;SDS011;56352;55.750;13.198;2022-12-29T04:31:48;8.63;;;4.75;;
69240;SDS011;56352;55.750;13.198;2022-12-29T04:34:15;6.63;;;5.00;;
69240;SDS011;56352;55.750;13.198;2022-12-29T04:36:43;9.95;;;5.30;;
69240;SDS011;56352;55.750;13.198;2022-12-29T04:39:10;7.93;;;4.88;;
69240;SDS011;56352;55.750;13.198;2022-12-29T04:41:36;5.82;;;4.53;;
69240;SDS011;56352;55.750;13.198;2022-12-29T04:44:02;9.73;;;5.53;;
69240;SDS011;56352;55.750;13.198;2022-12-29T04:46:29;8.55;;;5.32;;
69240;SDS011;56352;55.750;13.198;2022-12-29T04:48:56;8.02;;;5.13;;
69240;SDS011;56352;55.750;13.198;2022-12-29T04:51:22;7.25;;;4.30;;
69240;SDS011;56352;55.750;13.198;2022-12-29T04:53:48;7.57;;;5.40;;
69240;SDS011;56352;55.750;13.198;2022-12-29T04:56:15;11.85;;;5.35;;
69240;SDS011;56352;55.750;13.198;2022-12-29T04:58:43;10.02;;;4.95;;
69240;SDS011;56352;55.750;13.198;2022-12-29T05:01:10;7.35;;;4.65;;
69240;SDS011;56352;55.750;13.198;2022-12-29T05:03:36;9.40;;;4.85;;
69240;SDS011;56352;55.750;13.198;2022-12-29T05:06:02;11.02;;;5.20;;
69240;SDS011;56352;55.750;13.198;2022-12-29T05:08:29;10.75;;;4.95;;
69240;SDS011;56352;55.750;13.198;2022-12-29T05:10:56;7.35;;;4.85;;
69240;SDS011;56352;55.750;13.198;2022-12-29T05:13:22;8.80;;;4.93;;
69240;SDS011;56352;55.750;13.198;2022-12-29T05:15:49;8.70;;;4.65;;
69240;SDS011;56352;55.750;13.198;2022-12-29T05:18:16;7.53;;;4.60;;
69240;SDS011;56352;55.750;13.198;2022-12-29T05:20:43;8.98;;;4.82;;
69240;SDS011;56352;55.750;13.198;2022-12-29T05:23:10;8.45;;;4.47;;
69240;SDS011;56352;55.750;13.198;2022-12-29T05:25:36;7.85;;;4.68;;
69240;SDS011;56352;55.750;13.198;2022-12-29T05:28:03;10.90;;;4.88;;
69240;SDS011;56352;55.750;13.198;2022-12-29T05:30:30;7.20;;;4.93;;
69240;SDS011;56352;55.750;13.198;2022-12-29T05:32:56;6.13;;;4.20;;
69240;SDS011;56352;55.750;13.198;2022-12-29T05:35:23;7.03;;;4.60;;
69240;SDS011;56352;55.750;13.198;2022-12-29T05:37:49;6.30;;;4.78;;
69240;SDS011;56352;55.750;13.198;2022-12-29T05:40:15;6.93;;;4.15;;
69240;SDS011;56352;55.750;13.198;2022-12-29T05:42:42;8.15;;;4.18;;
69240;SDS011;56352;55.750;13.198;2022-12-29T05:45:09;6.70;;;4.43;;
69240;SDS011;56352;55.750;13.198;2022-12-29T05:47:35;7.15;;;4.88;;
69240;SDS011;56352;55.750;13.198;2022-12-29T05:50:02;12.10;;;4.40;;
69240;SDS011;56352;55.750;13.198;2022-12-29T05:52:28;7.18;;;3.75;;
69240;SDS011;56352;55.750;13.198;2022-12-29T05:54:55;6.80;;;4.43;;
69240;SDS011;56352;55.750;13.198;2022-12-29T05:57:21;6.88;;;3.70;;
69240;SDS011;56352;55.750;13.198;2022-12-29T05:59:48;5.40;;;3.90;;
69240;SDS011;56352;55.750;13.198;2022-12-29T06:02:14;5.88;;;4.10;;
69240;SDS011;56352;55.750;13.198;2022-12-29T06:04:41;5.22;;;3.88;;
69240;SDS011;56352;55.750;13.198;2022-12-29T06:07:07;6.70;;;4.15;;
69240;SDS011;56352;55.750;13.198;2022-12-29T06:09:33;6.28;;;3.97;;
69240;SDS011;56352;55.750;13.198;2022-12-29T06:12:00;5.60;;;3.88;;
69240;SDS011;56352;55.750;13.198;2022-12-29T06:14:26;6.78;;;3.65;;
69240;SDS011;56352;55.750;13.198;2022-12-29T06:16:53;6.30;;;4.05;;
69240;SDS011;56352;55.750;13.198;2022-12-29T06:19:19;5.57;;;4.25;;
69240;SDS011;56352;55.750;13.198;2022-12-29T06:21:45;6.63;;;4.30;;
69240;SDS011;56352;55.750;13.198;2022-12-29T06:24:12;6.00;;;4.00;;
69240;SDS011;56352;55.750;13.198;2022-12-29T06:26:38;7.53;;;4.40;;
69240;SDS011;56352;55.750;13.198;2022-12-29T06:29:07;6.70;;;4.10;;
69240;SDS011;56352;55.750;13.198;2022-12-29T06:31:34;8.35;;;4.50;;
69240;SDS011;56352;55.750;13.198;2022-12-29T06:34:01;7.63;;;4.30;;
69240;SDS011;56352;55.750;13.198;2022-12-29T06:36:33;7.28;;;4.53;;
69240;SDS011;56352;55.750;13.198;2022-12-29T06:39:00;6.65;;;4.15;;
69240;SDS011;56352;55.750;13.198;2022-12-29T06:41:26;7.75;;;4.50;;
69240;SDS011;56352;55.750;13.198;2022-12-29T06:43:57;5.97;;;4.13;;
69240;SDS011;56352;55.750;13.198;2022-12-29T06:46:24;9.45;;;4.60;;
69240;SDS011;56352;55.750;13.198;2022-12-29T06:48:50;5.22;;;4.20;;
69240;SDS011;56352;55.750;13.198;2022-12-29T06:51:16;12.07;;;4.95;;
69240;SDS011;56352;55.750;13.198;2022-12-29T06:53:43;5.85;;;4.28;;
69240;SDS011;56352;55.750;13.198;2022-12-29T06:56:09;6.50;;;4.32;;
69240;SDS011;56352;55.750;13.198;2022-12-29T06:58:36;6.57;;;4.47;;
69240;SDS011;56352;55.750;13.198;2022-12-29T07:01:02;8.20;;;4.55;;
69240;SDS011;56352;55.750;13.198;2022-12-29T07:03:29;8.70;;;4.03;;
69240;SDS011;56352;55.750;13.198;2022-12-29T07:05:55;7.35;;;4.50;;
69240;SDS011;56352;55.750;13.198;2022-12-29T07:08:24;8.67;;;4.80;;
69240;SDS011;56352;55.750;13.198;2022-12-29T07:10:50;6.03;;;4.38;;
69240;SDS011;56352;55.750;13.198;2022-12-29T07:13:17;4.53;;;3.90;;
69240;SDS011;56352;55.750;13.198;2022-12-29T07:15:43;7.50;;;4.40;;
69240;SDS011;56352;55.750;13.198;2022-12-29T07:18:09;8.38;;;4.05;;
69240;SDS011;56352;55.750;13.198;2022-12-29T07:20:36;5.82;;;4.05;;
69240;SDS011;56352;55.750;13.198;2022-12-29T07:23:02;6.20;;;3.85;;
69240;SDS011;56352;55.750;13.198;2022-12-29T07:25:29;6.53;;;4.10;;
69240;SDS011;56352;55.750;13.198;2022-12-29T07:27:55;6.60;;;3.78;;
69240;SDS011;56352;55.750;13.198;2022-12-29T07:30:22;6.20;;;3.95;;
69240;SDS011;56352;55.750;13.198;2022-12-29T07:32:48;5.95;;;3.90;;
69240;SDS011;56352;55.750;13.198;2022-12-29T07:35:15;8.60;;;3.33;;
69240;SDS011;56352;55.750;13.198;2022-12-29T07:37:42;8.00;;;3.65;;
69240;SDS011;56352;55.750;13.198;2022-12-29T07:40:09;5.55;;;3.60;;
69240;SDS011;56352;55.750;13.198;2022-12-29T07:42:35;5.43;;;3.58;;
69240;SDS011;56352;55.750;13.198;2022-12-29T07:45:02;4.28;;;3.40;;
69240;SDS011;56352;55.750;13.198;2022-12-29T07:47:29;4.30;;;3.20;;
69240;SDS011;56352;55.750;13.198;2022-12-29T07:49:55;6.13;;;3.72;;
69240;SDS011;56352;55.750;13.198;2022-12-29T07:52:21;6.43;;;3.58;;
69240;SDS011;56352;55.750;13.198;2022-12-29T07:54:48;5.82;;;3.05;;
69240;SDS011;56352;55.750;13.198;2022-12-29T07:57:14;4.95;;;3.30;;
69240;SDS011;56352;55.750;13.198;2022-12-29T07:59:41;6.47;;;3.45;;
69240;SDS011;56352;55.750;13.198;2022-12-29T08:02:09;6.13;;;3.40;;
69240;SDS011;56352;55.750;13.198;2022-12-29T08:04:36;5.30;;;3.20;;
69240;SDS011;56352;55.750;13.198;2022-12-29T08:07:02;4.75;;;3.15;;
69240;SDS011;56352;55.750;13.198;2022-12-29T08:09:28;7.05;;;3.20;;
69240;SDS011;56352;55.750;13.198;2022-12-29T08:11:55;5.15;;;2.63;;
69240;SDS011;56352;55.750;13.198;2022-12-29T08:14:21;5.50;;;3.15;;
69240;SDS011;56352;55.750;13.198;2022-12-29T08:16:48;4.28;;;2.97;;
69240;SDS011;56352;55.750;13.198;2022-12-29T08:19:14;6.90;;;2.65;;
69240;SDS011;56352;55.750;13.198;2022-12-29T08:21:41;3.50;;;2.50;;
69240;SDS011;56352;55.750;13.198;2022-12-29T08:24:07;2.90;;;2.40;;
69240;SDS011;56352;55.750;13.198;2022-12-29T08:26:34;4.65;;;2.40;;
69240;SDS011;56352;55.750;13.198;2022-12-29T08:29:01;5.03;;;2.53;;
69240;SDS011;56352;55.750;13.198;2022-12-29T08:31:27;3.17;;;2.20;;
69240;SDS011;56352;55.750;13.198;2022-12-29T08:33:54;4.18;;;2.30;;
69240;SDS011;56352;55.750;13.198;2022-12-29T08:36:20;3.55;;;2.13;;
69240;SDS011;56352;55.750;13.198;2022-12-29T08:38:47;3.28;;;2.22;;
69240;SDS011;56352;55.750;13.198;2022-12-29T08:41:13;3.40;;;2.17;;
69240;SDS011;56352;55.750;13.198;2022-12-29T08:43:39;3.00;;;1.83;;
69240;SDS011;56352;55.750;13.198;2022-12-29T08:46:06;3.40;;;1.95;;
69240;SDS011;56352;55.750;13.198;2022-12-29T08:48:33;3.40;;;2.15;;
69240;SDS011;56352;55.750;13.198;2022-12-29T08:50:59;2.92;;;1.65;;
69240;SDS011;56352;55.750;13.198;2022-12-29T08:53:26;4.85;;;2.17;;
69240;SDS011;56352;55.750;13.198;2022-12-29T08:55:56;5.70;;;2.40;;
69240;SDS011;56352;55.750;13.198;2022-12-29T08:58:30;2.60;;;1.73;;
69240;SDS011;56352;55.750;13.198;2022-12-29T09:00:56;3.65;;;1.77;;
69240;SDS011;56352;55.750;13.198;2022-12-29T09:03:23;5.43;;;1.80;;
69240;SDS011;56352;55.750;13.198;2022-12-29T09:06:10;4.15;;;2.08;;
69240;SDS011;56352;55.750;13.198;2022-12-29T09:08:36;3.95;;;1.52;;
69240;SDS011;56352;55.750;13.198;2022-12-29T09:11:10;3.17;;;1.58;;
69240;SDS011;56352;55.750;13.198;2022-12-29T09:13:37;3.75;;;1.77;;
69240;SDS011;56352;55.750;13.198;2022-12-29T09:16:04;7.30;;;2.10;;
69240;SDS011;56352;55.750;13.198;2022-12-29T09:18:31;2.58;;;1.45;;
69240;SDS011;56352;55.750;13.198;2022-12-29T09:20:58;5.05;;;1.75;;
69240;SDS011;56352;55.750;13.198;2022-12-29T09:23:25;4.20;;;1.40;;
69240;SDS011;56352;55.750;13.198;2022-12-29T09:25:52;4.60;;;1.85;;
69240;SDS011;56352;55.750;13.198;2022-12-29T09:28:19;2.67;;;1.52;;
69240;SDS011;56352;55.750;13.198;2022-12-29T09:30:46;4.07;;;2.20;;
69240;SDS011;56352;55.750;13.198;2022-12-29T09:33:12;4.78;;;2.28;;
69240;SDS011;56352;55.750;13.198;2022-12-29T09:35:48;4.57;;;1.38;;
69240;SDS011;56352;55.750;13.198;2022-12-29T09:38:15;5.25;;;1.73;;
69240;SDS011;56352;55.750;13.198;2022-12-29T09:40:49;5.20;;;2.47;;
69240;SDS011;56352;55.750;13.198;2022-12-29T09:48:35;3.28;;;1.48;;
69240;SDS011;56352;55.750;13.198;2022-12-29T09:51:03;4.32;;;1.85;;
69240;SDS011;56352;55.750;13.198;2022-12-29T09:53:38;6.95;;;1.92;;
69240;SDS011;56352;55.750;13.198;2022-12-29T09:56:07;3.10;;;1.60;;
69240;SDS011;56352;55.750;13.198;2022-12-29T09:58:40;6.47;;;1.80;;
69240;SDS011;56352;55.750;13.198;2022-12-29T10:01:14;3.33;;;1.50;;
69240;SDS011;56352;55.750;13.198;2022-12-29T10:03:48;2.08;;;1.52;;
69240;SDS011;56352;55.750;13.198;2022-12-29T10:08:49;3.15;;;1.45;;
69240;SDS011;56352;55.750;13.198;2022-12-29T10:24:28;5.00;;;2.13;;
69240;SDS011;56352;55.750;13.198;2022-12-29T10:26:57;6.32;;;1.85;;
69240;SDS011;56352;55.750;13.198;2022-12-29T10:29:28;3.75;;;1.60;;
69240;SDS011;56352;55.750;13.198;2022-12-29T10:31:58;4.90;;;1.70;;
69240;SDS011;56352;55.750;13.198;2022-12-29T10:34:29;4.78;;;1.90;;
69240;SDS011;56352;55.750;13.198;2022-12-29T10:37:04;4.47;;;1.73;;
69240;SDS011;56352;55.750;13.198;2022-12-29T10:39:39;4.20;;;1.58;;
69240;SDS011;56352;55.750;13.198;2022-12-29T10:44:49;3.70;;;1.40;;
69240;SDS011;56352;55.750;13.198;2022-12-29T10:47:19;2.78;;;1.77;;
69240;SDS011;56352;55.750;13.198;2022-12-29T10:49:47;3.97;;;1.83;;
69240;SDS011;56352;55.750;13.198;2022-12-29T10:52:15;4.32;;;1.42;;
69240;SDS011;56352;55.750;13.198;2022-12-29T10:59:47;3.83;;;1.30;;
69240;SDS011;56352;55.750;13.198;2022-12-29T11:04:58;2.30;;;1.45;;
69240;SDS011;56352;55.750;13.198;2022-12-29T11:07:26;2.35;;;1.27;;
69240;SDS011;56352;55.750;13.198;2022-12-29T11:09:53;1.98;;;1.42;;
69240;SDS011;56352;55.750;13.198;2022-12-29T11:14:46;2.58;;;1.27;;
69240;SDS011;56352;55.750;13.198;2022-12-29T11:17:16;2.25;;;1.10;;
69240;SDS011;56352;55.750;13.198;2022-12-29T11:19:43;3.55;;;1.25;;
69240;SDS011;56352;55.750;13.198;2022-12-29T11:24:43;6.82;;;1.27;;
69240;SDS011;56352;55.750;13.198;2022-12-29T11:27:20;2.42;;;0.90;;
69240;SDS011;56352;55.750;13.198;2022-12-29T11:29:52;3.00;;;1.10;;
69240;SDS011;56352;55.750;13.198;2022-12-29T11:32:28;8.13;;;1.17;;
69240;SDS011;56352;55.750;13.198;2022-12-29T11:34:58;4.03;;;1.48;;
69240;SDS011;56352;55.750;13.198;2022-12-29T11:42:22;4.90;;;1.25;;
69240;SDS011;56352;55.750;13.198;2022-12-29T11:44:49;4.75;;;1.20;;
69240;SDS011;56352;55.750;13.198;2022-12-29T11:47:35;3.97;;;1.00;;
69240;SDS011;56352;55.750;13.198;2022-12-29T11:50:04;3.53;;;1.30;;
69240;SDS011;56352;55.750;13.198;2022-12-29T11:52:32;3.63;;;1.23;;
69240;SDS011;56352;55.750;13.198;2022-12-29T11:55:02;4.03;;;1.33;;
69240;SDS011;56352;55.750;13.198;2022-12-29T11:57:29;4.35;;;1.42;;
69240;SDS011;56352;55.750;13.198;2022-12-29T11:59:58;4.93;;;1.30;;
69240;SDS011;56352;55.750;13.198;2022-12-29T12:04:56;4.35;;;1.08;;
69240;SDS011;56352;55.750;13.198;2022-12-29T12:07:40;2.88;;;1.60;;
69240;SDS011;56352;55.750;13.198;2022-12-29T12:10:13;4.88;;;1.98;;
69240;SDS011;56352;55.750;13.198;2022-12-29T12:15:29;3.90;;;1.27;;
69240;SDS011;56352;55.750;13.198;2022-12-29T12:23:10;3.22;;;1.20;;
69240;SDS011;56352;55.750;13.198;2022-12-29T12:25:39;3.80;;;1.25;;
69240;SDS011;56352;55.750;13.198;2022-12-29T12:28:13;6.07;;;1.20;;
69240;SDS011;56352;55.750;13.198;2022-12-29T12:30:44;5.05;;;1.30;;
69240;SDS011;56352;55.750;13.198;2022-12-29T12:38:31;4.25;;;1.10;;
69240;SDS011;56352;55.750;13.198;2022-12-29T12:52:13;7.05;;;1.30;;
69240;SDS011;56352;55.750;13.198;2022-12-29T13:04:37;4.22;;;1.00;;
69240;SDS011;56352;55.750;13.198;2022-12-29T13:09:50;3.35;;;1.00;;
69240;SDS011;56352;55.750;13.198;2022-12-29T13:17:30;5.60;;;1.45;;
69240;SDS011;56352;55.750;13.198;2022-12-29T13:25:15;5.57;;;1.27;;
69240;SDS011;56352;55.750;13.198;2022-12-29T13:30:29;6.15;;;1.73;;
69240;SDS011;56352;55.750;13.198;2022-12-29T13:33:23;7.93;;;1.40;;
69240;SDS011;56352;55.750;13.198;2022-12-29T13:35:53;3.05;;;1.00;;
69240;SDS011;56352;55.750;13.198;2022-12-29T13:40:52;9.07;;;1.70;;
69240;SDS011;56352;55.750;13.198;2022-12-29T13:43:19;4.18;;;0.93;;
69240;SDS011;56352;55.750;13.198;2022-12-29T13:45:46;5.53;;;1.15;;
69240;SDS011;56352;55.750;13.198;2022-12-29T13:48:19;4.35;;;1.33;;
69240;SDS011;56352;55.750;13.198;2022-12-29T13:50:50;3.78;;;1.58;;
69240;SDS011;56352;55.750;13.198;2022-12-29T13:56:08;8.15;;;1.73;;
69240;SDS011;56352;55.750;13.198;2022-12-29T14:01:07;5.97;;;1.25;;
69240;SDS011;56352;55.750;13.198;2022-12-29T14:03:52;5.18;;;1.48;;
69240;SDS011;56352;55.750;13.198;2022-12-29T14:09:05;4.65;;;1.10;;
69240;SDS011;56352;55.750;13.198;2022-12-29T14:11:35;6.47;;;1.23;;
69240;SDS011;56352;55.750;13.198;2022-12-29T14:17:11;6.47;;;1.25;;
69240;SDS011;56352;55.750;13.198;2022-12-29T14:19:41;6.53;;;1.17;;
69240;SDS011;56352;55.750;13.198;2022-12-29T14:22:09;4.22;;;1.13;;
69240;SDS011;56352;55.750;13.198;2022-12-29T14:32:02;2.88;;;1.27;;
69240;SDS011;56352;55.750;13.198;2022-12-29T14:34:29;3.97;;;1.10;;
69240;SDS011;56352;55.750;13.198;2022-12-29T14:37:00;4.07;;;1.40;;
69240;SDS011;56352;55.750;13.198;2022-12-29T14:42:03;3.95;;;1.23;;
69240;SDS011;56352;55.750;13.198;2022-12-29T14:44:30;3.20;;;1.10;;
69240;SDS011;56352;55.750;13.198;2022-12-29T14:46:58;7.45;;;1.50;;
69240;SDS011;56352;55.750;13.198;2022-12-29T14:49:27;7.10;;;1.30;;
69240;SDS011;56352;55.750;13.198;2022-12-29T14:51:55;9.90;;;1.45;;
69240;SDS011;56352;55.750;13.198;2022-12-29T14:56:59;1.80;;;1.20;;
69240;SDS011;56352;55.750;13.198;2022-12-29T14:59:28;4.47;;;1.10;;
69240;SDS011;56352;55.750;13.198;2022-12-29T15:01:56;8.38;;;1.27;;
69240;SDS011;56352;55.750;13.198;2022-12-29T15:04:25;6.53;;;1.15;;
69240;SDS011;56352;55.750;13.198;2022-12-29T15:06:53;3.50;;;1.45;;
69240;SDS011;56352;55.750;13.198;2022-12-29T15:09:35;4.22;;;1.20;;
69240;SDS011;56352;55.750;13.198;2022-12-29T15:12:18;5.95;;;1.27;;
69240;SDS011;56352;55.750;13.198;2022-12-29T15:14:49;4.47;;;1.13;;
69240;SDS011;56352;55.750;13.198;2022-12-29T15:17:23;4.68;;;1.13;;
69240;SDS011;56352;55.750;13.198;2022-12-29T15:19:50;3.65;;;1.20;;
69240;SDS011;56352;55.750;13.198;2022-12-29T15:22:17;6.03;;;1.27;;
69240;SDS011;56352;55.750;13.198;2022-12-29T15:24:43;5.40;;;1.65;;
69240;SDS011;56352;55.750;13.198;2022-12-29T15:27:12;4.70;;;1.25;;
69240;SDS011;56352;55.750;13.198;2022-12-29T15:29:40;4.97;;;1.48;;
69240;SDS011;56352;55.750;13.198;2022-12-29T15:32:25;9.25;;;1.90;;
69240;SDS011;56352;55.750;13.198;2022-12-29T15:34:53;3.97;;;1.73;;
69240;SDS011;56352;55.750;13.198;2022-12-29T15:39:47;3.42;;;1.30;;
69240;SDS011;56352;55.750;13.198;2022-12-29T15:44:46;5.60;;;1.48;;
69240;SDS011;56352;55.750;13.198;2022-12-29T15:47:20;6.82;;;1.55;;
69240;SDS011;56352;55.750;13.198;2022-12-29T15:49:48;5.93;;;1.45;;
69240;SDS011;56352;55.750;13.198;2022-12-29T15:52:19;4.78;;;1.38;;
69240;SDS011;56352;55.750;13.198;2022-12-29T15:54:46;5.35;;;1.80;;
69240;SDS011;56352;55.750;13.198;2022-12-29T15:57:27;7.20;;;1.27;;
69240;SDS011;56352;55.750;13.198;2022-12-29T15:59:54;4.22;;;1.60;;
69240;SDS011;56352;55.750;13.198;2022-12-29T16:02:24;7.75;;;2.55;;
69240;SDS011;56352;55.750;13.198;2022-12-29T16:04:51;11.27;;;2.22;;
69240;SDS011;56352;55.750;13.198;2022-12-29T16:07:38;5.28;;;1.90;;
69240;SDS011;56352;55.750;13.198;2022-12-29T16:10:27;5.35;;;2.00;;
69240;SDS011;56352;55.750;13.198;2022-12-29T16:13:03;4.93;;;1.50;;
69240;SDS011;56352;55.750;13.198;2022-12-29T16:15:31;7.15;;;1.88;;
69240;SDS011;56352;55.750;13.198;2022-12-29T16:17:57;9.50;;;2.08;;
69240;SDS011;56352;55.750;13.198;2022-12-29T16:20:25;4.20;;;1.50;;
69240;SDS011;56352;55.750;13.198;2022-12-29T16:22:55;3.63;;;1.45;;
69240;SDS011;56352;55.750;13.198;2022-12-29T16:27:50;5.70;;;1.48;;
69240;SDS011;56352;55.750;13.198;2022-12-29T16:32:47;5.82;;;1.77;;
69240;SDS011;56352;55.750;13.198;2022-12-29T16:35:24;5.15;;;1.55;;
69240;SDS011;56352;55.750;13.198;2022-12-29T16:40:33;6.30;;;1.65;;
69240;SDS011;56352;55.750;13.198;2022-12-29T16:43:01;6.07;;;2.25;;
69240;SDS011;56352;55.750;13.198;2022-12-29T16:50:33;3.17;;;1.27;;
69240;SDS011;56352;55.750;13.198;2022-12-29T16:53:01;9.02;;;1.73;;
69240;SDS011;56352;55.750;13.198;2022-12-29T16:55:29;6.30;;;1.30;;
69240;SDS011;56352;55.750;13.198;2022-12-29T16:57:56;5.95;;;1.50;;
69240;SDS011;56352;55.750;13.198;2022-12-29T17:00:27;5.35;;;1.48;;
69240;SDS011;56352;55.750;13.198;2022-12-29T17:02:58;8.40;;;1.40;;
69240;SDS011;56352;55.750;13.198;2022-12-29T17:05:25;6.80;;;1.30;;
69240;SDS011;56352;55.750;13.198;2022-12-29T17:07:52;5.22;;;1.67;;
69240;SDS011;56352;55.750;13.198;2022-12-29T17:10:19;8.23;;;1.50;;
69240;SDS011;56352;55.750;13.198;2022-12-29T17:12:46;7.80;;;1.80;;
69240;SDS011;56352;55.750;13.198;2022-12-29T17:15:31;8.27;;;1.30;;
69240;SDS011;56352;55.750;13.198;2022-12-29T17:18:00;4.88;;;1.48;;
69240;SDS011;56352;55.750;13.198;2022-12-29T17:20:27;6.38;;;1.50;;
69240;SDS011;56352;55.750;13.198;2022-12-29T17:22:55;7.28;;;1.60;;
69240;SDS011;56352;55.750;13.198;2022-12-29T17:25:28;7.90;;;1.67;;
69240;SDS011;56352;55.750;13.198;2022-12-29T17:27:57;18.00;;;3.25;;
69240;SDS011;56352;55.750;13.198;2022-12-29T17:30:25;9.18;;;2.40;;
69240;SDS011;56352;55.750;13.198;2022-12-29T17:35:25;8.48;;;1.70;;
69240;SDS011;56352;55.750;13.198;2022-12-29T17:37:52;9.50;;;1.83;;
69240;SDS011;56352;55.750;13.198;2022-12-29T17:40:23;11.93;;;2.35;;
69240;SDS011;56352;55.750;13.198;2022-12-29T17:42:51;9.15;;;1.67;;
69240;SDS011;56352;55.750;13.198;2022-12-29T17:45:22;6.45;;;1.50;;